createdAt,value
2023-05-24T00:02:17.200Z,2.40
2023-05-24T00:04:45.388Z,2.20
2023-05-24T00:07:12.575Z,2.13
2023-05-24T00:09:39.672Z,2.50
2023-05-24T00:12:06.703Z,2.50
2023-05-24T00:14:33.670Z,2.03
2023-05-24T00:17:00.521Z,2.40
2023-05-24T00:19:27.493Z,2.65
2023-05-24T00:21:54.246Z,1.98
2023-05-24T00:24:21.104Z,2.97
2023-05-24T00:26:48.484Z,2.67
2023-05-24T00:29:15.332Z,2.42
2023-05-24T00:31:42.237Z,1.73
2023-05-24T00:34:08.934Z,1.83
2023-05-24T00:36:38.256Z,2.10
2023-05-24T00:39:05.862Z,2.35
2023-05-24T00:41:32.965Z,2.10
2023-05-24T00:43:59.678Z,2.63
2023-05-24T00:46:30.149Z,1.95
2023-05-24T00:48:57.609Z,1.95
2023-05-24T00:51:27.229Z,1.60
2023-05-24T00:53:54.964Z,1.75
2023-05-24T00:56:22.463Z,2.00
2023-05-24T00:58:50.766Z,2.10
2023-05-24T01:01:18.211Z,1.70
2023-05-24T01:03:46.363Z,1.95
2023-05-24T01:06:15.963Z,2.00
2023-05-24T01:09:06.578Z,2.00
2023-05-24T01:12:03.777Z,2.25
2023-05-24T01:14:36.685Z,1.30
2023-05-24T01:17:27.212Z,2.17
2023-05-24T01:20:08.809Z,1.90
2023-05-24T01:23:17.431Z,2.25
2023-05-24T01:26:06.317Z,1.88
2023-05-24T01:28:35.335Z,2.25
2023-05-24T01:31:02.647Z,1.80
2023-05-24T01:33:29.696Z,2.10
2023-05-24T01:35:56.401Z,2.38
2023-05-24T01:38:23.154Z,2.20
2023-05-24T01:40:55.995Z,1.95
2023-05-24T01:43:33.847Z,2.00
2023-05-24T01:46:22.634Z,2.50
2023-05-24T01:49:05.785Z,2.35
2023-05-24T01:51:49.025Z,1.92
2023-05-24T01:54:21.022Z,1.92
2023-05-24T01:56:49.045Z,1.90
2023-05-24T01:59:16.425Z,2.75
2023-05-24T02:01:43.317Z,1.77
2023-05-24T02:04:10.195Z,2.05
2023-05-24T02:06:38.148Z,1.98
2023-05-24T02:09:04.931Z,2.00
2023-05-24T02:11:32.555Z,2.00
2023-05-24T02:13:59.245Z,1.95
2023-05-24T02:16:26.989Z,2.45
2023-05-24T02:18:53.960Z,2.45
2023-05-24T02:21:20.887Z,2.05
2023-05-24T02:23:47.796Z,2.08
2023-05-24T02:26:14.741Z,1.75
2023-05-24T02:28:41.625Z,2.28
2023-05-24T02:31:08.604Z,2.00
2023-05-24T02:33:35.429Z,2.00
2023-05-24T02:36:02.353Z,2.50
2023-05-24T02:38:29.101Z,2.03
2023-05-24T02:40:56.131Z,2.20
2023-05-24T02:43:22.874Z,2.30
2023-05-24T02:45:49.643Z,2.45
2023-05-24T02:48:16.446Z,2.45
2023-05-24T02:50:43.198Z,2.30
2023-05-24T02:53:10.104Z,1.80
2023-05-24T02:55:37.322Z,1.98
2023-05-24T02:58:03.983Z,2.10
2023-05-24T03:00:30.873Z,1.80
2023-05-24T03:03:00.817Z,2.85
2023-05-24T03:05:27.657Z,2.60
2023-05-24T03:07:54.361Z,2.63
2023-05-24T03:10:21.042Z,2.25
2023-05-24T03:12:47.710Z,2.20
2023-05-24T03:15:14.467Z,1.73
2023-05-24T03:17:41.181Z,2.35
2023-05-24T03:20:08.355Z,2.08
2023-05-24T03:22:35.137Z,2.15
2023-05-24T03:25:01.945Z,2.40
2023-05-24T03:27:28.695Z,1.85
2023-05-24T03:29:55.716Z,2.45
2023-05-24T03:32:22.405Z,2.22
2023-05-24T03:34:49.128Z,2.38
2023-05-24T03:37:15.907Z,2.22
2023-05-24T03:39:42.796Z,2.72
2023-05-24T03:42:09.651Z,2.50
2023-05-24T03:44:36.564Z,2.42
2023-05-24T03:47:03.829Z,2.33
2023-05-24T03:49:31.676Z,2.20
2023-05-24T03:51:58.364Z,2.15
2023-05-24T03:54:25.073Z,2.42
2023-05-24T03:56:53.326Z,3.83
2023-05-24T03:59:21.700Z,3.15
2023-05-24T04:01:48.403Z,2.45
2023-05-24T04:04:15.300Z,2.17
2023-05-24T04:06:42.117Z,4.13
2023-05-24T04:09:10.031Z,2.65
2023-05-24T04:11:36.808Z,2.85
2023-05-24T04:14:03.772Z,2.30
2023-05-24T04:16:34.052Z,2.83
2023-05-24T04:19:03.844Z,3.00
2023-05-24T04:21:31.970Z,3.60
2023-05-24T04:24:01.456Z,3.03
2023-05-24T04:26:28.282Z,2.53
2023-05-24T04:28:54.995Z,3.28
2023-05-24T04:31:21.942Z,3.40
2023-05-24T04:33:50.008Z,4.28
2023-05-24T04:36:17.714Z,2.95
2023-05-24T04:38:46.234Z,3.17
2023-05-24T04:41:13.446Z,3.28
2023-05-24T04:43:40.713Z,2.47
2023-05-24T04:46:09.140Z,3.15
2023-05-24T04:48:36.536Z,4.00
2023-05-24T04:51:03.311Z,4.57
2023-05-24T04:53:30.474Z,3.42
2023-05-24T04:55:57.275Z,3.15
2023-05-24T04:58:23.938Z,2.95
2023-05-24T05:00:50.749Z,3.13
2023-05-24T05:03:17.617Z,2.97
2023-05-24T05:05:45.198Z,3.58
2023-05-24T05:08:11.899Z,2.75
2023-05-24T05:10:38.549Z,2.95
2023-05-24T05:13:05.291Z,3.03
2023-05-24T05:15:32.693Z,3.15
2023-05-24T05:17:59.615Z,3.17
2023-05-24T05:20:26.397Z,3.42
2023-05-24T05:22:53.174Z,2.97
2023-05-24T05:25:19.973Z,3.22
2023-05-24T05:27:46.689Z,3.08
2023-05-24T05:30:13.786Z,3.20
2023-05-24T05:32:40.698Z,2.72
2023-05-24T05:35:07.999Z,3.28
2023-05-24T05:37:34.667Z,3.75
2023-05-24T05:40:01.435Z,3.42
2023-05-24T05:42:28.187Z,3.85
2023-05-24T05:44:55.062Z,3.30
2023-05-24T05:47:21.800Z,3.47
2023-05-24T05:49:48.525Z,3.30
2023-05-24T05:52:15.297Z,3.67
2023-05-24T05:54:42.100Z,3.53
2023-05-24T05:57:11.352Z,5.15
2023-05-24T05:59:38.321Z,3.50
2023-05-24T06:02:06.630Z,3.92
2023-05-24T06:04:33.949Z,3.20
2023-05-24T06:07:00.709Z,3.53
2023-05-24T06:09:27.518Z,3.83
2023-05-24T06:11:54.374Z,3.28
2023-05-24T06:14:25.005Z,4.90
2023-05-24T06:16:52.360Z,4.28
2023-05-24T06:19:19.170Z,3.35
2023-05-24T06:21:48.061Z,4.10
2023-05-24T06:24:20.391Z,3.97
2023-05-24T06:26:51.440Z,3.40
2023-05-24T06:29:22.532Z,4.05
2023-05-24T06:31:50.208Z,3.85
2023-05-24T06:34:20.961Z,3.78
2023-05-24T06:36:48.610Z,5.93
2023-05-24T06:39:16.166Z,4.10
2023-05-24T06:41:44.364Z,4.82
2023-05-24T06:44:11.186Z,4.10
2023-05-24T06:46:38.048Z,3.88
2023-05-24T06:49:04.906Z,3.80
2023-05-24T06:51:33.820Z,3.92
2023-05-24T06:54:01.053Z,3.85
2023-05-24T06:56:28.864Z,3.90
2023-05-24T06:58:56.600Z,4.18
2023-05-24T07:01:23.446Z,4.95
2023-05-24T07:03:50.292Z,3.63
2023-05-24T07:06:17.162Z,3.42
2023-05-24T07:08:43.890Z,4.13
2023-05-24T07:11:10.981Z,5.07
2023-05-24T07:13:37.750Z,4.07
2023-05-24T07:16:04.677Z,3.75
2023-05-24T07:18:31.650Z,4.25
2023-05-24T07:20:58.350Z,4.00
2023-05-24T07:23:25.382Z,4.03
2023-05-24T07:25:52.730Z,3.60
2023-05-24T07:28:20.272Z,3.38
2023-05-24T07:30:47.288Z,4.90
2023-05-24T07:33:14.197Z,4.22
2023-05-24T07:35:41.788Z,4.18
2023-05-24T07:38:08.902Z,4.22
2023-05-24T07:40:35.665Z,3.50
2023-05-24T07:43:04.094Z,3.20
2023-05-24T07:45:31.751Z,3.47
2023-05-24T07:47:58.898Z,3.70
2023-05-24T07:50:26.406Z,3.58
2023-05-24T07:52:53.112Z,2.83
2023-05-24T07:55:19.973Z,3.20
2023-05-24T07:57:46.741Z,2.70
2023-05-24T08:00:16.655Z,3.33
2023-05-24T08:02:46.861Z,3.72
2023-05-24T08:05:14.381Z,2.80
2023-05-24T08:07:41.935Z,3.65
2023-05-24T08:10:13.549Z,5.05
2023-05-24T08:12:40.678Z,2.90
2023-05-24T08:15:08.069Z,2.85
2023-05-24T08:17:34.823Z,3.13
2023-05-24T08:20:02.062Z,2.83
2023-05-24T08:22:28.772Z,3.30
2023-05-24T08:24:55.498Z,2.50
2023-05-24T08:27:22.537Z,4.05
2023-05-24T08:29:49.292Z,2.58
2023-05-24T08:32:16.086Z,2.70
2023-05-24T08:34:44.232Z,2.97
2023-05-24T08:37:12.639Z,2.85
2023-05-24T08:39:40.401Z,2.70
2023-05-24T08:42:09.201Z,3.15
2023-05-24T08:44:45.344Z,2.72
2023-05-24T08:47:13.845Z,2.80
2023-05-24T08:49:42.529Z,3.70
2023-05-24T08:52:11.597Z,2.40
2023-05-24T08:54:40.383Z,2.75
2023-05-24T08:57:07.536Z,3.00
2023-05-24T08:59:34.452Z,2.70
2023-05-24T09:02:02.649Z,3.08
2023-05-24T09:04:30.906Z,2.80
2023-05-24T09:06:58.438Z,3.25
2023-05-24T09:09:28.936Z,3.05
2023-05-24T09:11:58.640Z,3.60
2023-05-24T09:14:25.883Z,3.55
2023-05-24T09:16:52.831Z,2.13
2023-05-24T09:19:20.764Z,3.15
2023-05-24T09:21:49.783Z,2.42
2023-05-24T09:24:17.028Z,2.33
2023-05-24T09:26:43.729Z,2.78
2023-05-24T09:29:10.490Z,3.00
2023-05-24T09:31:39.515Z,3.10
2023-05-24T09:34:11.568Z,2.35
2023-05-24T09:36:45.056Z,2.85
2023-05-24T09:39:12.006Z,2.70
2023-05-24T09:41:39.276Z,3.13
2023-05-24T09:44:06.474Z,2.63
2023-05-24T09:46:38.506Z,2.55
2023-05-24T09:49:08.095Z,3.00
2023-05-24T09:51:38.797Z,2.30
2023-05-24T09:54:06.304Z,2.53
2023-05-24T09:56:36.196Z,3.10
2023-05-24T09:59:09.885Z,2.65
2023-05-24T10:01:37.030Z,3.20
2023-05-24T10:04:09.372Z,2.20
2023-05-24T10:06:38.508Z,2.50
2023-05-24T10:09:09.611Z,2.13
2023-05-24T10:11:37.413Z,2.53
2023-05-24T10:14:09.764Z,2.45
2023-05-24T10:16:38.436Z,2.45
2023-05-24T10:19:07.295Z,2.30
2023-05-24T10:21:38.894Z,2.28
2023-05-24T10:24:09.132Z,2.15
2023-05-24T10:26:37.473Z,2.33
2023-05-24T10:29:16.509Z,2.17
2023-05-24T10:31:45.000Z,2.40
2023-05-24T10:34:12.212Z,2.38
2023-05-24T10:36:40.522Z,2.20
2023-05-24T10:39:12.228Z,2.28
2023-05-24T10:41:43.397Z,2.47
2023-05-24T10:44:18.204Z,2.10
2023-05-24T10:47:26.462Z,2.78
2023-05-24T10:49:59.261Z,2.08
2023-05-24T10:52:36.675Z,2.25
2023-05-24T10:55:08.453Z,2.30
2023-05-24T10:57:36.260Z,2.20
2023-05-24T11:03:02.607Z,2.28
2023-05-24T11:05:36.466Z,2.28
2023-05-24T11:08:09.174Z,2.42
2023-05-24T11:10:36.213Z,2.95
2023-05-24T11:13:04.000Z,2.20
2023-05-24T11:15:31.025Z,2.78
2023-05-24T11:18:09.984Z,2.28
2023-05-24T11:20:37.169Z,2.60
2023-05-24T11:23:05.267Z,2.50
2023-05-24T11:25:33.846Z,2.20
2023-05-24T11:28:11.023Z,2.80
2023-05-24T11:30:45.560Z,2.58
2023-05-24T11:33:25.524Z,2.45
2023-05-24T11:35:54.852Z,2.53
2023-05-24T11:38:24.826Z,2.50
2023-05-24T11:40:52.136Z,2.70
2023-05-24T11:43:20.714Z,3.30
2023-05-24T11:45:50.112Z,2.10
2023-05-24T11:48:18.750Z,2.30
2023-05-24T11:50:50.216Z,2.67
2023-05-24T11:53:20.907Z,2.80
2023-05-24T11:55:48.701Z,2.53
2023-05-24T11:58:18.635Z,2.70
2023-05-24T12:00:47.053Z,2.30
2023-05-24T12:03:13.981Z,2.55
2023-05-24T12:05:40.915Z,2.45
2023-05-24T12:08:12.392Z,2.47
2023-05-24T12:10:42.672Z,2.63
2023-05-24T12:13:25.454Z,3.55
2023-05-24T12:15:56.938Z,3.35
2023-05-24T12:18:26.151Z,3.03
2023-05-24T12:20:53.251Z,3.72
2023-05-24T12:23:23.178Z,3.40
2023-05-24T12:25:50.398Z,3.22
2023-05-24T12:28:21.801Z,3.63
2023-05-24T12:30:50.112Z,2.88
2023-05-24T12:33:19.825Z,3.10
2023-05-24T12:35:48.070Z,3.17
2023-05-24T12:38:15.332Z,2.78
2023-05-24T12:40:44.326Z,2.88
2023-05-24T12:43:14.868Z,2.60
2023-05-24T12:45:41.713Z,2.40
2023-05-24T12:48:08.987Z,2.75
2023-05-24T12:50:35.872Z,2.70
2023-05-24T12:53:03.476Z,2.55
2023-05-24T12:55:30.766Z,2.45
2023-05-24T13:00:45.790Z,2.75
2023-05-24T13:03:26.895Z,2.33
2023-05-24T13:06:04.854Z,2.65
2023-05-24T13:08:32.089Z,3.20
2023-05-24T13:10:59.707Z,3.75
2023-05-24T13:13:28.968Z,3.17
2023-05-24T13:15:58.909Z,2.28
2023-05-24T13:18:26.323Z,2.03
2023-05-24T13:20:54.125Z,2.28
2023-05-24T13:23:21.363Z,2.20
2023-05-24T13:25:48.256Z,2.25
2023-05-24T13:28:15.149Z,2.35
2023-05-24T13:30:42.225Z,2.28
2023-05-24T13:33:09.262Z,1.85
2023-05-24T13:35:36.088Z,1.58
2023-05-24T13:38:02.850Z,2.15
2023-05-24T13:40:29.691Z,3.05
2023-05-24T13:42:57.249Z,2.20
2023-05-24T13:45:24.752Z,1.73
2023-05-24T13:47:51.884Z,2.10
2023-05-24T13:50:18.885Z,2.03
2023-05-24T13:52:45.920Z,1.73
2023-05-24T13:55:16.465Z,1.48
2023-05-24T13:57:51.650Z,1.73
2023-05-24T14:00:19.430Z,0.95
2023-05-24T14:02:46.839Z,1.00
2023-05-24T14:05:27.005Z,1.38
2023-05-24T14:07:55.746Z,1.27
2023-05-24T14:10:22.815Z,1.25
2023-05-24T14:13:03.545Z,0.70
2023-05-24T14:15:36.918Z,0.98
2023-05-24T14:18:07.800Z,0.88
2023-05-24T14:20:38.235Z,0.85
2023-05-24T14:23:06.440Z,1.77
2023-05-24T14:25:34.010Z,1.13
2023-05-24T14:28:01.009Z,1.30
2023-05-24T14:30:27.747Z,1.17
2023-05-24T14:32:54.515Z,2.10
2023-05-24T14:35:21.267Z,1.30
2023-05-24T14:37:48.037Z,1.63
2023-05-24T14:40:17.015Z,1.60
2023-05-24T14:42:45.131Z,1.05
2023-05-24T14:45:12.665Z,1.30
2023-05-24T14:47:39.373Z,2.47
2023-05-24T14:50:07.047Z,1.20
2023-05-24T14:52:33.813Z,1.02
2023-05-24T14:55:00.681Z,1.35
2023-05-24T14:57:27.417Z,1.02
2023-05-24T14:59:54.127Z,1.35
2023-05-24T15:02:20.995Z,1.48
2023-05-24T15:04:49.018Z,1.20
2023-05-24T15:07:16.083Z,1.27
2023-05-24T15:09:47.874Z,1.27
2023-05-24T15:12:15.019Z,0.90
2023-05-24T15:14:41.965Z,1.52
2023-05-24T15:17:09.647Z,1.25
2023-05-24T15:19:36.716Z,1.13
2023-05-24T15:22:03.492Z,1.50
2023-05-24T15:24:30.250Z,1.02
2023-05-24T15:26:57.419Z,1.00
2023-05-24T15:29:24.185Z,1.20
2023-05-24T15:31:50.910Z,1.20
2023-05-24T15:34:17.809Z,1.05
2023-05-24T15:36:45.841Z,1.20
2023-05-24T15:39:12.775Z,1.13
2023-05-24T15:41:39.601Z,1.10
2023-05-24T15:44:09.043Z,1.23
2023-05-24T15:46:39.152Z,0.80
2023-05-24T15:49:06.091Z,1.20
2023-05-24T15:52:02.691Z,1.05
2023-05-24T15:54:19.801Z,1.20
2023-05-24T15:56:46.785Z,1.60
2023-05-24T15:59:13.561Z,1.17
2023-05-24T16:01:41.501Z,1.13
2023-05-24T16:04:08.310Z,1.08
2023-05-24T16:06:35.103Z,1.20
2023-05-24T16:09:01.954Z,1.00
2023-05-24T16:11:28.776Z,0.90
2023-05-24T16:13:56.864Z,1.10
2023-05-24T16:16:23.752Z,1.45
2023-05-24T16:18:51.139Z,1.67
2023-05-24T16:21:17.888Z,1.10
2023-05-24T16:23:44.580Z,1.27
2023-05-24T16:26:11.497Z,1.00
2023-05-24T16:28:38.247Z,1.30
2023-05-24T16:31:05.044Z,1.23
2023-05-24T16:33:31.760Z,1.33
2023-05-24T16:36:03.026Z,1.15
2023-05-24T16:38:30.360Z,1.30
2023-05-24T16:40:57.015Z,1.20
2023-05-24T16:43:23.776Z,1.23
2023-05-24T16:45:51.735Z,1.40
2023-05-24T16:48:21.348Z,1.13
2023-05-24T16:50:50.441Z,1.20
2023-05-24T16:53:17.315Z,1.00
2023-05-24T16:55:44.343Z,1.10
2023-05-24T16:58:11.132Z,1.40
2023-05-24T17:00:37.849Z,1.60
2023-05-24T17:03:04.643Z,1.20
2023-05-24T17:05:31.459Z,1.30
2023-05-24T17:07:58.244Z,1.70
2023-05-24T17:10:24.886Z,1.33
2023-05-24T17:12:51.643Z,1.50
2023-05-24T17:15:18.400Z,1.23
2023-05-24T17:17:45.523Z,1.50
2023-05-24T17:20:14.019Z,1.40
2023-05-24T17:22:41.030Z,1.30
2023-05-24T17:25:08.454Z,1.30
2023-05-24T17:27:35.214Z,2.00
2023-05-24T17:30:02.013Z,1.40
2023-05-24T17:32:28.835Z,1.75
2023-05-24T17:34:55.674Z,1.50
2023-05-24T17:37:22.469Z,1.40
2023-05-24T17:39:52.305Z,1.50
2023-05-24T17:42:19.388Z,1.50
2023-05-24T17:44:46.299Z,1.30
2023-05-24T17:47:13.082Z,1.25
2023-05-24T17:49:39.855Z,1.50
2023-05-24T17:52:07.152Z,1.55
2023-05-24T17:54:34.177Z,1.40
2023-05-24T17:57:01.773Z,1.35
2023-05-24T17:59:28.578Z,2.08
2023-05-24T18:01:55.296Z,1.30
2023-05-24T18:04:22.077Z,1.58
2023-05-24T18:06:48.901Z,1.52
2023-05-24T18:09:16.921Z,1.17
2023-05-24T18:11:43.735Z,1.52
2023-05-24T18:14:10.816Z,1.30
2023-05-24T18:16:37.773Z,1.85
2023-05-24T18:19:04.599Z,1.75
2023-05-24T18:21:32.460Z,1.35
2023-05-24T18:23:59.168Z,1.58
2023-05-24T18:26:26.238Z,1.80
2023-05-24T18:28:52.995Z,1.60
2023-05-24T18:31:20.431Z,1.67
2023-05-24T18:33:47.382Z,1.80
2023-05-24T18:36:14.216Z,1.70
2023-05-24T18:38:41.026Z,1.73
2023-05-24T18:41:12.295Z,2.10
2023-05-24T18:43:39.509Z,1.80
2023-05-24T18:46:06.368Z,1.80
2023-05-24T18:48:33.098Z,1.80
2023-05-24T18:50:59.856Z,2.45
2023-05-24T18:53:26.709Z,2.55
2023-05-24T18:55:53.666Z,1.95
2023-05-24T18:58:20.403Z,2.72
2023-05-24T19:00:47.736Z,2.53
2023-05-24T19:03:14.738Z,3.40
2023-05-24T19:05:43.909Z,2.20
2023-05-24T19:08:11.122Z,2.65
2023-05-24T19:10:37.886Z,2.60
2023-05-24T19:13:05.883Z,2.75
2023-05-24T19:15:34.388Z,2.90
2023-05-24T19:18:01.707Z,2.47
2023-05-24T19:20:28.621Z,3.00
2023-05-24T19:22:56.239Z,2.85
2023-05-24T19:25:23.084Z,3.13
2023-05-24T19:27:59.501Z,2.70
2023-05-24T19:30:27.390Z,2.63
2023-05-24T19:32:54.400Z,2.80
2023-05-24T19:35:21.524Z,3.28
2023-05-24T19:37:48.333Z,3.13
2023-05-24T19:40:15.294Z,2.95
2023-05-24T19:42:43.517Z,2.90
2023-05-24T19:45:12.013Z,2.58
2023-05-24T19:47:39.767Z,3.38
2023-05-24T19:50:07.497Z,3.50
2023-05-24T19:52:34.245Z,2.78
2023-05-24T19:55:01.086Z,3.33
2023-05-24T19:57:27.846Z,2.90
2023-05-24T19:59:54.689Z,3.58
2023-05-24T20:02:22.296Z,3.33
2023-05-24T20:04:49.449Z,3.42
2023-05-24T20:07:16.244Z,3.28
2023-05-24T20:09:42.984Z,3.90
2023-05-24T20:12:09.846Z,3.67
2023-05-24T20:14:36.563Z,3.25
2023-05-24T20:17:03.687Z,3.63
2023-05-24T20:19:30.601Z,4.05
2023-05-24T20:21:58.185Z,3.55
2023-05-24T20:24:25.000Z,3.95
2023-05-24T20:26:51.830Z,4.22
2023-05-24T20:29:18.540Z,3.30
2023-05-24T20:31:47.042Z,4.70
2023-05-24T20:34:13.925Z,4.20
2023-05-24T20:36:43.375Z,4.75
2023-05-24T20:39:10.545Z,3.97
2023-05-24T20:41:37.384Z,4.65
2023-05-24T20:44:04.093Z,4.25
2023-05-24T20:46:30.911Z,4.90
2023-05-24T20:48:57.710Z,4.07
2023-05-24T20:51:24.685Z,4.30
2023-05-24T20:53:53.078Z,4.25
2023-05-24T20:56:21.366Z,4.63
2023-05-24T20:58:52.522Z,4.82
2023-05-24T21:01:20.238Z,5.00
2023-05-24T21:03:47.148Z,4.28
2023-05-24T21:06:13.935Z,3.80
2023-05-24T21:08:40.703Z,4.72
2023-05-24T21:11:07.426Z,4.60
2023-05-24T21:13:34.239Z,4.65
2023-05-24T21:16:02.128Z,4.43
2023-05-24T21:18:28.866Z,5.05
2023-05-24T21:20:55.638Z,4.22
2023-05-24T21:23:22.349Z,4.43
2023-05-24T21:25:49.228Z,4.78
2023-05-24T21:28:16.008Z,4.60
2023-05-24T21:30:42.781Z,5.45
2023-05-24T21:33:09.934Z,5.82
2023-05-24T21:35:37.411Z,5.57
2023-05-24T21:38:04.128Z,4.32
2023-05-24T21:40:30.832Z,4.95
2023-05-24T21:42:57.573Z,4.72
2023-05-24T21:45:24.287Z,3.70
2023-05-24T21:47:51.081Z,4.57
2023-05-24T21:50:17.835Z,3.65
2023-05-24T21:52:44.528Z,4.45
2023-05-24T21:55:11.265Z,3.83
2023-05-24T21:57:38.167Z,4.45
2023-05-24T22:00:05.484Z,4.90
2023-05-24T22:02:32.335Z,4.45
2023-05-24T22:04:59.139Z,4.00
2023-05-24T22:07:25.877Z,4.18
2023-05-24T22:09:52.647Z,4.20
2023-05-24T22:12:19.324Z,4.30
2023-05-24T22:14:46.101Z,4.63
2023-05-24T22:17:14.129Z,4.00
2023-05-24T22:19:41.201Z,4.25
2023-05-24T22:22:08.804Z,4.75
2023-05-24T22:24:35.822Z,5.28
2023-05-24T22:27:02.576Z,5.40
2023-05-24T22:29:29.366Z,4.10
2023-05-24T22:31:56.214Z,4.88
2023-05-24T22:34:29.262Z,4.22
2023-05-24T22:36:57.486Z,4.90
2023-05-24T22:39:24.938Z,4.03
2023-05-24T22:41:52.637Z,4.07
2023-05-24T22:44:19.714Z,3.88
2023-05-24T22:46:49.946Z,6.22
2023-05-24T22:49:19.669Z,4.75
2023-05-24T22:51:48.215Z,4.30
2023-05-24T22:54:15.676Z,4.60
2023-05-24T22:56:43.364Z,4.43
2023-05-24T22:59:11.207Z,4.35
2023-05-24T23:01:38.448Z,4.93
2023-05-24T23:04:19.689Z,4.82
2023-05-24T23:06:49.263Z,3.88
2023-05-24T23:09:17.574Z,4.90
2023-05-24T23:11:44.432Z,4.10
2023-05-24T23:14:11.466Z,4.97
2023-05-24T23:16:45.059Z,5.28
2023-05-24T23:19:13.441Z,4.57
2023-05-24T23:21:42.057Z,4.13
2023-05-24T23:24:14.214Z,4.63
2023-05-24T23:26:41.813Z,4.43
2023-05-24T23:29:08.907Z,5.25
2023-05-24T23:31:36.185Z,4.40
2023-05-24T23:34:03.885Z,4.78
2023-05-24T23:36:30.649Z,4.75
2023-05-24T23:38:57.385Z,4.18
2023-05-24T23:41:24.108Z,4.57
2023-05-24T23:43:52.314Z,5.03
2023-05-24T23:46:19.279Z,4.75
2023-05-24T23:48:46.181Z,4.90
2023-05-24T23:51:13.033Z,3.85
2023-05-24T23:53:40.028Z,5.25
2023-05-24T23:56:06.736Z,5.63
2023-05-24T23:58:33.988Z,4.40
